Time;durP1;ratioP1;P1;durP2;ratioP2;P2;SDS_P1;SDS_P2;PMS_P1;PMS_P2;Temp;Humidity;BMP_temperature;BMP_pressure;BME280_temperature;BME280_humidity;BME280_pressure;Samples;Min_cycle;Max_cycle;Signal;HPM_P1;HPM_P2
2023/05/28 00:04:24;;;;;;;10.10;4.23;;;;;;;5.78;100.00;97033.69;10579094;28;20238;-67
2023/05/28 00:09:24;;;;;;;8.43;3.97;;;;;;;5.68;100.00;97033.53;10579686;28;20202;-67
2023/05/28 00:14:25;;;;;;;12.30;4.20;;;;;;;5.55;100.00;97031.06;10578677;28;20209;-67
2023/05/28 00:19:25;;;;;;;8.73;4.30;;;;;;;5.62;100.00;97031.41;10579115;28;20215;-68
2023/05/28 00:24:26;;;;;;;10.43;4.03;;;;;;;5.62;100.00;97021.88;10578589;28;20228;-67
2023/05/28 00:29:26;;;;;;;9.40;4.40;;;;;;;5.54;100.00;97019.00;10578465;28;20205;-67
2023/05/28 00:34:27;;;;;;;12.97;4.07;;;;;;;5.49;100.00;97018.56;10578341;28;20245;-67
2023/05/28 00:39:27;;;;;;;6.67;3.80;;;;;;;5.50;100.00;97007.22;10577319;28;20202;-67
2023/05/28 00:44:28;;;;;;;9.60;3.83;;;;;;;5.50;100.00;97017.63;10578054;28;20259;-67
2023/05/28 00:49:28;;;;;;;9.63;4.63;;;;;;;5.46;100.00;97008.41;10483855;22;20236;-66
2023/05/28 00:54:30;;;;;;;13.80;4.20;;;;;;;5.47;100.00;97008.28;10452454;28;20216;-65
2023/05/28 00:59:33;;;;;;;9.23;3.77;;;;;;;5.54;100.00;97001.66;10483752;28;20203;-65
2023/05/28 01:04:35;;;;;;;9.90;5.30;;;;;;;5.44;100.00;96994.69;10476466;28;20183;-65
2023/05/28 01:09:36;;;;;;;9.13;4.00;;;;;;;5.44;100.00;96999.91;10493777;28;20201;-64
2023/05/28 01:14:37;;;;;;;16.77;4.50;;;;;;;5.43;100.00;96995.63;10493471;28;20293;-65
2023/05/28 01:19:37;;;;;;;11.77;4.20;;;;;;;5.42;100.00;96992.22;10475527;28;20210;-65
2023/05/28 01:24:39;;;;;;;11.03;4.20;;;;;;;5.42;100.00;96989.63;10475561;28;20195;-65
2023/05/28 01:29:39;;;;;;;9.43;3.83;;;;;;;5.37;100.00;96981.34;10475261;28;20211;-64
2023/05/28 01:34:40;;;;;;;9.87;4.03;;;;;;;5.38;100.00;96977.81;10475219;28;20211;-64
2023/05/28 01:39:43;;;;;;;8.30;4.03;;;;;;;5.41;100.00;96971.56;10493025;28;20211;-64
2023/05/28 01:44:45;;;;;;;9.60;3.80;;;;;;;5.27;100.00;96986.41;10474818;28;20184;-65
2023/05/28 01:49:46;;;;;;;8.03;3.47;;;;;;;5.07;100.00;96976.69;10474491;28;20235;-66
2023/05/28 01:54:47;;;;;;;8.37;4.07;;;;;;;4.98;100.00;96971.25;10474652;28;20253;-65
2023/05/28 01:59:47;;;;;;;12.17;4.67;;;;;;;4.95;100.00;96974.09;10492589;28;20203;-66
2023/05/28 02:04:47;;;;;;;7.27;3.87;;;;;;;4.96;100.00;96972.31;10474469;28;20324;-65
2023/05/28 02:09:48;;;;;;;8.20;3.70;;;;;;;4.97;100.00;96964.41;10492274;28;20215;-65
2023/05/28 02:14:48;;;;;;;5.53;3.43;;;;;;;5.02;100.00;96965.84;10481072;28;20284;-66
2023/05/28 02:19:49;;;;;;;17.67;4.50;;;;;;;4.94;100.00;96963.81;10481868;28;20231;-65
2023/05/28 02:24:49;;;;;;;5.73;3.47;;;;;;;4.83;100.00;96954.25;10481479;28;20199;-65
2023/05/28 02:29:50;;;;;;;10.60;4.10;;;;;;;4.79;100.00;96964.03;10499359;28;20846;-64
2023/05/28 02:34:54;;;;;;;7.30;4.00;;;;;;;4.76;100.00;96953.03;10481056;28;20230;-65
2023/05/28 02:39:55;;;;;;;11.57;3.73;;;;;;;4.69;100.00;96952.66;10498936;28;20364;-65
2023/05/28 02:44:55;;;;;;;16.33;4.20;;;;;;;4.60;100.00;96946.38;10498908;28;20333;-64
2023/05/28 02:49:56;;;;;;;9.20;4.00;;;;;;;4.47;100.00;96950.81;10451147;28;20242;-64
2023/05/28 02:54:57;;;;;;;10.17;4.13;;;;;;;4.46;100.00;96956.97;10439253;28;20241;-65
2023/05/28 02:59:59;;;;;;;10.50;4.10;;;;;;;4.34;100.00;96960.44;10438734;28;20220;-65
2023/05/28 03:05:02;;;;;;;13.23;4.00;;;;;;;4.29;100.00;96961.59;10438613;28;20184;-64
2023/05/28 03:10:03;;;;;;;10.10;3.80;;;;;;;4.31;100.00;96964.09;10438012;28;20210;-65
2023/05/28 03:15:04;;;;;;;7.43;3.80;;;;;;;4.26;100.00;96959.25;10437887;28;20227;-64
2023/05/28 03:20:10;;;;;;;8.93;3.40;;;;;;;4.32;100.00;96964.91;10437641;28;20212;-64
2023/05/28 03:25:10;;;;;;;9.93;3.77;;;;;;;4.45;100.00;96960.50;10437573;28;20199;-65
2023/05/28 03:30:11;;;;;;;7.50;3.50;;;;;;;4.44;100.00;96956.22;10437107;28;20743;-64
2023/05/28 03:35:21;;;;;;;6.03;3.40;;;;;;;4.47;100.00;96964.63;10437088;28;20264;-66
2023/05/28 03:40:23;;;;;;;7.47;3.63;;;;;;;4.59;100.00;96957.69;10436991;28;20227;-65
2023/05/28 03:45:23;;;;;;;7.70;3.43;;;;;;;4.68;100.00;96953.59;10436571;28;20594;-66
2023/05/28 03:50:24;;;;;;;7.17;3.30;;;;;;;4.75;100.00;96959.19;10454239;28;20270;-66
2023/05/28 03:55:26;;;;;;;7.03;2.93;;;;;;;4.85;100.00;96957.53;10436085;28;20315;-65
2023/05/28 04:00:27;;;;;;;5.60;3.13;;;;;;;4.87;100.00;96950.47;10435780;28;20307;-65
2023/05/28 04:05:28;;;;;;;7.83;3.50;;;;;;;4.97;100.00;96945.41;10436015;28;20188;-66
2023/05/28 04:10:28;;;;;;;9.67;3.33;;;;;;;5.00;100.00;96948.59;10435526;28;20242;-66
2023/05/28 04:15:30;;;;;;;7.50;3.03;;;;;;;5.14;100.00;96946.72;10435700;28;20298;-66
2023/05/28 04:20:30;;;;;;;6.77;2.97;;;;;;;5.36;100.00;96945.94;10435285;28;20314;-65
2023/05/28 04:25:31;;;;;;;7.07;3.30;;;;;;;5.56;100.00;96935.75;10435491;28;20648;-65
2023/05/28 04:30:32;;;;;;;6.33;2.93;;;;;;;5.94;100.00;96935.34;10434952;28;20313;-65
2023/05/28 04:35:33;;;;;;;5.17;3.20;;;;;;;6.08;100.00;96921.28;10434149;28;20298;-65
2023/05/28 04:40:34;;;;;;;11.80;2.97;;;;;;;6.39;100.00;96924.81;10452453;28;20635;-66
2023/05/28 04:45:34;;;;;;;5.57;3.20;;;;;;;6.64;100.00;96925.41;10434109;28;20549;-65
2023/05/28 04:50:35;;;;;;;3.47;2.80;;;;;;;6.97;100.00;96915.75;10434380;28;20657;-65
2023/05/28 04:55:35;;;;;;;10.03;3.30;;;;;;;7.23;100.00;96916.13;10452256;28;20222;-66
2023/05/28 05:00:36;;;;;;;7.03;2.60;;;;;;;7.38;100.00;96916.63;10434213;28;20211;-65
2023/05/28 05:05:36;;;;;;;5.60;3.00;;;;;;;7.65;100.00;96918.59;10434211;28;20270;-66
2023/05/28 05:10:37;;;;;;;4.03;2.70;;;;;;;7.92;100.00;96913.75;10451764;28;20213;-66
2023/05/28 05:15:37;;;;;;;6.50;2.70;;;;;;;8.26;100.00;96916.78;10433963;28;20273;-66
2023/05/28 05:20:37;;;;;;;4.77;2.57;;;;;;;8.60;100.00;96899.91;10433722;28;20212;-66
2023/05/28 05:25:38;;;;;;;7.87;2.67;;;;;;;8.93;100.00;96891.59;10434015;28;20221;-66
2023/05/28 05:30:38;;;;;;;7.93;3.00;;;;;;;9.37;100.00;96892.81;10433700;28;20298;-67
2023/05/28 05:35:39;;;;;;;7.03;2.93;;;;;;;9.75;100.00;96880.50;10433767;28;20235;-66
2023/05/28 05:41:12;;;;;;;7.33;3.07;;;;;;;10.03;97.04;96867.38;10433609;28;20219;-65
2023/05/28 05:46:21;;;;;;;5.97;2.90;;;;;;;10.46;91.58;96855.31;10434836;28;20227;-66
2023/05/28 05:51:22;;;;;;;5.57;2.95;;;;;;;10.81;89.07;96840.50;10441334;28;20597;-66
2023/05/28 05:56:22;;;;;;;5.30;2.63;;;;;;;11.36;85.58;96829.66;10440952;28;20211;-66
2023/05/28 06:01:22;;;;;;;5.88;2.83;;;;;;;11.77;83.92;96837.63;10459105;28;20241;-67
2023/05/28 06:06:23;;;;;;;5.97;2.78;;;;;;;12.45;80.71;96808.63;10458705;28;20200;-66
2023/05/28 06:11:48;;;;;;;7.68;3.05;;;;;;;12.99;77.13;96789.66;10440646;28;20219;-66
2023/05/28 06:16:49;;;;;;;8.23;3.00;;;;;;;13.37;70.56;96730.16;10440388;28;20569;-66
2023/05/28 06:21:50;;;;;;;9.10;2.88;;;;;;;13.99;69.86;96738.91;10440226;28;20271;-66
2023/05/28 06:26:51;;;;;;;4.63;2.58;;;;;;;15.50;64.55;96704.44;10439886;28;20219;-66
2023/05/28 06:31:52;;;;;;;5.43;2.67;;;;;;;16.95;59.43;96667.88;10439779;28;20222;-67
2023/05/28 06:36:52;;;;;;;7.30;3.05;;;;;;;17.27;59.38;96681.41;10457463;28;20200;-67
2023/05/28 06:41:53;;;;;;;9.30;3.28;;;;;;;16.97;59.34;96694.13;10454169;28;20230;-67
2023/05/28 06:47:09;;;;;;;6.53;2.85;;;;;;;17.49;58.79;96703.28;10440944;28;20326;-67
2023/05/28 06:52:10;;;;;;;6.53;2.67;;;;;;;17.58;57.39;96686.19;10557818;23;20650;-61
2023/05/28 06:57:10;;;;;;;4.35;2.67;;;;;;;19.25;52.95;96647.97;10563282;28;20189;-63
2023/05/28 07:02:41;;;;;;;5.05;2.70;;;;;;;19.77;49.16;96592.84;10563424;28;20204;-63
2023/05/28 07:07:55;;;;;;;9.05;2.83;;;;;;;18.54;51.83;96639.88;10582345;28;20190;-62
2023/05/28 07:12:55;;;;;;;7.28;3.15;;;;;;;18.53;53.11;96661.28;10580954;28;20310;-61
2023/05/28 07:17:56;;;;;;;6.13;2.95;;;;;;;21.07;46.48;96595.53;10563294;28;20185;-62
2023/05/28 07:22:57;;;;;;;4.38;2.22;;;;;;;22.21;43.60;96585.72;10580846;28;20854;-62
2023/05/28 07:27:58;;;;;;;6.80;2.90;;;;;;;22.49;42.54;96568.19;10580973;28;20556;-61
2023/05/28 07:33:05;;;;;;;4.80;2.67;;;;;;;22.13;41.31;96530.03;10543545;28;20226;-62
2023/05/28 07:38:05;;;;;;;6.70;3.08;;;;;;;19.87;48.09;96636.72;10533461;28;20190;-62
2023/05/28 07:43:06;;;;;;;6.53;3.00;;;;;;;20.96;46.09;96628.22;10537661;28;20194;-60
2023/05/28 07:48:06;;;;;;;7.32;3.17;;;;;;;19.13;48.85;96628.41;10595540;27;20192;-60
2023/05/28 07:53:31;;;;;;;6.93;3.03;;;;;;;19.63;46.82;96598.44;10621620;27;20298;-61
2023/05/28 07:58:31;;;;;;;7.57;2.90;;;;;;;21.09;44.42;96590.78;10543474;28;20263;-62
2023/05/28 08:03:32;;;;;;;6.18;3.13;;;;;;;20.93;45.52;96613.50;10518530;28;20206;-62
2023/05/28 08:08:35;;;;;;;8.45;3.38;;;;;;;21.78;42.96;96586.91;10518464;28;20183;-62
2023/05/28 08:13:37;;;;;;;6.75;2.88;;;;;;;23.04;40.40;96559.59;10518158;28;20595;-62
2023/05/28 08:18:39;;;;;;;11.27;5.63;;;;;;;21.75;42.94;96582.81;10518784;28;20927;-62
2023/05/28 08:23:39;;;;;;;6.53;3.33;;;;;;;21.06;44.27;96598.38;10517901;28;20230;-62
2023/05/28 08:28:43;;;;;;;7.90;2.65;;;;;;;20.87;44.63;96606.41;10518284;28;20218;-64
2023/05/28 08:33:44;;;;;;;7.07;3.40;;;;;;;20.77;46.19;96635.44;10517658;28;20218;-64
2023/05/28 08:38:44;;;;;;;6.70;3.33;;;;;;;21.52;44.38;96615.59;10517882;28;20729;-63
2023/05/28 08:43:45;;;;;;;5.40;3.05;;;;;;;22.00;41.39;96555.13;10517575;28;20225;-62
2023/05/28 08:48:47;;;;;;;7.70;2.97;;;;;;;22.36;41.90;96582.56;10517557;28;20237;-61
2023/05/28 08:53:47;;;;;;;5.18;2.75;;;;;;;22.92;39.84;96542.81;10517165;28;20226;-62
2023/05/28 08:58:53;;;;;;;11.35;3.33;;;;;;;22.69;39.92;96528.50;10517514;28;20195;-62
2023/05/28 09:03:53;;;;;;;5.82;3.22;;;;;;;21.86;41.39;96546.53;10516845;28;20186;-62
2023/05/28 09:08:58;;;;;;;8.88;3.35;;;;;;;22.66;38.12;96482.78;10535262;28;20218;-62
2023/05/28 09:14:12;;;;;;;6.13;2.78;;;;;;;22.80;39.18;96522.34;10517074;28;20669;-62
2023/05/28 09:19:17;;;;;;;6.63;2.83;;;;;;;23.72;37.78;96511.56;10516546;28;20260;-63
2023/05/28 09:24:17;;;;;;;8.80;3.10;;;;;;;24.21;37.01;96511.72;10508701;28;20322;-63
2023/05/28 09:29:38;;;;;;;4.50;2.70;;;;;;;24.86;36.78;96533.34;10524747;28;20628;-63
2023/05/28 09:34:41;;;;;;;10.20;3.45;;;;;;;23.04;39.71;96532.88;10543632;28;20314;-62
2023/05/28 09:39:41;;;;;;;7.05;2.85;;;;;;;24.57;36.65;96512.16;10542243;28;20256;-63
2023/05/28 09:44:44;;;;;;;5.35;2.72;;;;;;;24.09;35.94;96459.34;10543233;28;20247;-63
2023/05/28 09:49:46;;;;;;;5.45;2.83;;;;;;;24.13;37.93;96532.72;10542146;28;20238;-62
2023/05/28 09:54:51;;;;;;;7.57;3.35;;;;;;;24.62;38.15;96550.78;10542360;28;20214;-62
2023/05/28 09:59:55;;;;;;;6.30;2.85;;;;;;;24.27;36.73;96498.38;10542096;28;20206;-62
2023/05/28 10:04:57;;;;;;;5.35;3.20;;;;;;;24.09;37.64;96521.72;10542210;28;20695;-62
2023/05/28 10:09:59;;;;;;;6.10;2.72;;;;;;;24.81;37.72;96546.72;10523452;28;20292;-62
2023/05/28 10:15:00;;;;;;;7.18;2.83;;;;;;;25.64;35.11;96497.31;10523995;28;20222;-62
2023/05/28 10:20:00;;;;;;;5.55;2.95;;;;;;;24.64;38.59;96535.25;10523120;28;20766;-62
2023/05/28 10:25:00;;;;;;;7.00;3.05;;;;;;;25.22;37.54;96540.91;10541685;28;20194;-62
2023/05/28 10:30:04;;;;;;;9.30;2.83;;;;;;;25.39;36.90;96535.47;10522293;28;20214;-63
2023/05/28 10:35:05;;;;;;;8.68;2.90;;;;;;;24.03;39.11;96533.41;10540180;28;20760;-62
2023/05/28 10:40:09;;;;;;;6.65;2.78;;;;;;;23.88;37.05;96469.00;10540519;28;20301;-63
2023/05/28 10:45:10;;;;;;;7.38;3.60;;;;;;;23.86;38.37;96509.38;10540200;28;20183;-63
2023/05/28 10:50:12;;;;;;;7.63;3.13;;;;;;;24.72;38.19;96538.31;10539880;28;20731;-65
2023/05/28 10:55:13;;;;;;;4.53;2.63;;;;;;;26.20;35.21;96512.13;10550105;28;20220;-64
2023/05/28 11:00:23;;;;;;;8.63;2.85;;;;;;;25.45;35.12;96478.13;10581728;28;20211;-61
2023/05/28 11:05:27;;;;;;;7.65;3.17;;;;;;;26.08;35.06;96499.75;10582116;28;20261;-61
2023/05/28 11:10:28;;;;;;;5.93;2.80;;;;;;;26.56;33.62;96453.97;10581541;28;20205;-62
2023/05/28 11:15:28;;;;;;;5.25;3.03;;;;;;;25.92;35.99;96516.78;10580953;28;20338;-63
2023/05/28 11:20:29;;;;;;;7.50;2.92;;;;;;;26.90;33.41;96485.75;10581231;28;20234;-63
2023/05/28 11:25:29;;;;;;;5.03;2.83;;;;;;;26.34;35.14;96497.16;10581126;28;20664;-63
2023/05/28 11:30:29;;;;;;;7.82;3.20;;;;;;;27.12;32.21;96465.88;10581048;28;21033;-64
2023/05/28 11:35:30;;;;;;;10.45;2.95;;;;;;;26.61;33.71;96482.72;10562771;28;20221;-64
2023/05/28 11:40:34;;;;;;;6.23;2.70;;;;;;;26.06;33.99;96461.59;10580096;28;20252;-63
2023/05/28 11:45:39;;;;;;;5.97;3.08;;;;;;;28.01;32.13;96477.13;10579531;28;20944;-64
2023/05/28 11:50:39;;;;;;;7.57;2.67;;;;;;;27.17;31.67;96418.28;10579585;28;20578;-64
2023/05/28 11:55:39;;;;;;;9.20;2.75;;;;;;;27.27;29.98;96374.44;10580055;28;20218;-61
2023/05/28 12:00:40;;;;;;;6.72;2.72;;;;;;;26.72;31.82;96416.41;10579471;28;20591;-63
2023/05/28 12:05:40;;;;;;;6.47;3.00;;;;;;;27.55;30.45;96394.59;10579677;28;20186;-64
2023/05/28 12:10:41;;;;;;;5.37;3.20;;;;;;;27.25;29.76;96352.38;10579107;28;20514;-63
2023/05/28 12:15:41;;;;;;;9.20;2.70;;;;;;;28.08;29.54;96402.22;10578638;28;20475;-63
2023/05/28 12:20:42;;;;;;;8.40;2.85;;;;;;;26.84;29.06;96320.97;10578799;28;20455;-62
2023/05/28 12:25:42;;;;;;;4.85;2.60;;;;;;;27.47;31.03;96418.53;10578893;28;20193;-63
2023/05/28 12:30:44;;;;;;;5.50;2.92;;;;;;;29.09;29.65;96427.19;10578100;28;20225;-64
2023/05/28 12:35:45;;;;;;;5.25;3.28;;;;;;;28.53;29.61;96396.84;10578439;28;20220;-65
2023/05/28 12:40:45;;;;;;;3.50;2.30;;;;;;;28.08;28.90;96361.81;10577759;28;20288;-65
2023/05/28 12:45:46;;;;;;;4.70;2.50;;;;;;;28.39;29.45;96402.06;10577794;28;20250;-66
2023/05/28 12:50:46;;;;;;;4.97;2.88;;;;;;;27.28;30.72;96386.81;10588369;22;20493;-66
2023/05/28 12:55:47;;;;;;;5.37;2.77;;;;;;;28.07;28.56;96346.75;10535812;28;20221;-69
2023/05/28 13:00:48;;;;;;;5.93;3.03;;;;;;;28.14;30.00;96388.72;10535252;28;20465;-68
2023/05/28 13:05:49;;;;;;;4.95;2.67;;;;;;;29.13;30.79;96447.94;10536080;28;20485;-68
2023/05/28 13:10:49;;;;;;;6.03;2.83;;;;;;;28.20;30.60;96395.69;10534667;28;20217;-67
2023/05/28 13:15:50;;;;;;;4.03;2.57;;;;;;;28.64;27.97;96336.41;10535220;28;20228;-68
2023/05/28 13:20:50;;;;;;;5.07;2.90;;;;;;;28.75;29.18;96377.56;10537606;28;20484;-67
2023/05/28 13:25:50;;;;;;;5.80;2.60;;;;;;;29.09;28.12;96357.88;10538802;28;20479;-67
2023/05/28 13:30:51;;;;;;;5.60;2.40;;;;;;;27.65;30.00;96357.94;10536523;28;20654;-66
2023/05/28 13:35:51;;;;;;;7.90;2.70;;;;;;;27.58;30.66;96369.00;10535247;28;20822;-68
2023/05/28 13:40:52;;;;;;;5.53;2.58;;;;;;;29.35;27.96;96363.03;10534759;28;20835;-66
2023/05/28 13:45:52;;;;;;;5.32;2.53;;;;;;;29.90;26.08;96330.28;10534835;28;20198;-67
2023/05/28 13:50:53;;;;;;;3.80;2.77;;;;;;;30.39;26.71;96369.63;10534186;28;20262;-67
2023/05/28 13:55:54;;;;;;;7.17;3.27;;;;;;;30.30;26.27;96348.94;10534646;28;20482;-67
2023/05/28 14:00:54;;;;;;;6.97;2.63;;;;;;;30.17;25.88;96301.81;10534165;28;20602;-67
2023/05/28 14:05:55;;;;;;;6.18;3.20;;;;;;;30.67;26.24;96339.19;10534535;28;20739;-68
2023/05/28 14:10:55;;;;;;;6.65;2.47;;;;;;;31.33;24.50;96317.50;10541062;28;20206;-67
2023/05/28 14:15:56;;;;;;;7.57;3.20;;;;;;;32.04;23.80;96309.84;10542156;28;21041;-67
2023/05/28 14:20:56;;;;;;;7.03;3.10;;;;;;;31.03;23.64;96243.94;10541238;28;21020;-68
2023/05/28 14:25:56;;;;;;;5.60;3.00;;;;;;;31.36;23.92;96268.19;10541776;28;20941;-68
2023/05/28 14:30:57;;;;;;;7.33;2.77;;;;;;;31.27;22.85;96236.44;10540991;28;21033;-67
2023/05/28 14:35:57;;;;;;;4.17;2.20;;;;;;;30.91;24.84;96276.88;10541125;28;20985;-68
2023/05/28 14:40:57;;;;;;;2.97;2.27;;;;;;;31.06;24.33;96273.09;10540748;28;20977;-67
2023/05/28 14:45:58;;;;;;;5.57;2.67;;;;;;;30.44;24.72;96252.50;10540840;28;20971;-67
2023/05/28 14:50:58;;;;;;;6.53;2.88;;;;;;;30.74;24.29;96253.88;10540281;28;20480;-67
2023/05/28 14:55:59;;;;;;;4.97;2.57;;;;;;;31.10;25.37;96309.28;10538903;28;20225;-67
2023/05/28 15:01:02;;;;;;;15.90;2.73;;;;;;;29.23;23.91;96165.69;10539521;28;20460;-67
2023/05/28 15:06:02;;;;;;;5.45;2.97;;;;;;;30.21;23.36;96186.66;10540135;28;20436;-67
2023/05/28 15:11:02;;;;;;;4.43;2.72;;;;;;;31.42;22.55;96229.06;10539251;28;20708;-67
2023/05/28 15:16:03;;;;;;;5.85;2.88;;;;;;;30.58;22.29;96179.56;10539755;28;20253;-67
2023/05/28 15:21:03;;;;;;;6.07;2.63;;;;;;;32.13;21.90;96236.75;10538617;28;20212;-67
2023/05/28 15:26:04;;;;;;;5.70;2.65;;;;;;;30.42;23.98;96233.09;10539474;28;20815;-67
2023/05/28 15:31:04;;;;;;;5.30;2.88;;;;;;;31.09;22.80;96226.50;10538519;28;20263;-67
2023/05/28 15:36:05;;;;;;;6.00;2.53;;;;;;;30.61;23.88;96235.72;10538945;28;20222;-67
2023/05/28 15:41:06;;;;;;;6.32;3.13;;;;;;;32.44;22.64;96263.16;10538144;28;20220;-67
2023/05/28 15:46:06;;;;;;;2.92;2.63;;;;;;;30.09;24.66;96229.53;10538484;28;20556;-67
2023/05/28 15:51:07;;;;;;;7.65;2.90;;;;;;;28.60;26.72;96222.16;10537737;28;20299;-67
2023/05/28 15:56:07;;;;;;;7.23;3.20;;;;;;;28.77;27.69;96293.72;10537796;28;20265;-67
2023/05/28 16:01:08;;;;;;;5.38;3.00;;;;;;;27.83;29.24;96291.94;10537432;28;20468;-67
2023/05/28 16:06:10;;;;;;;3.22;2.50;;;;;;;26.63;29.97;96277.19;10537520;28;20183;-67
2023/05/28 16:11:15;;;;;;;6.97;2.90;;;;;;;25.02;32.57;96294.97;10536910;28;20206;-67
2023/05/28 16:16:16;;;;;;;4.55;2.63;;;;;;;24.29;33.41;96298.16;10537279;28;20214;-67
2023/05/28 16:21:16;;;;;;;6.70;2.83;;;;;;;23.62;34.50;96321.53;10535072;28;20218;-67
2023/05/28 16:26:17;;;;;;;3.55;2.53;;;;;;;23.07;35.07;96307.16;10536892;28;20216;-67
2023/05/28 16:31:18;;;;;;;4.90;2.92;;;;;;;22.93;35.84;96347.56;10535299;28;20229;-66
2023/05/28 16:36:21;;;;;;;5.82;2.67;;;;;;;22.84;35.92;96333.00;10536161;28;20221;-67
2023/05/28 16:41:21;;;;;;;4.93;2.75;;;;;;;22.79;33.77;96284.88;10535924;28;20206;-67
2023/05/28 16:46:23;;;;;;;6.47;2.58;;;;;;;22.17;36.42;96331.88;10525183;28;20182;-67
2023/05/28 16:51:23;;;;;;;3.88;2.38;;;;;;;22.05;35.99;96325.78;10502483;28;20689;-67
2023/05/28 16:56:29;;;;;;;6.10;2.38;;;;;;;21.91;35.62;96307.44;10493878;28;20230;-67
2023/05/28 17:01:29;;;;;;;5.38;2.65;;;;;;;21.74;37.58;96359.88;10493249;28;20207;-67
2023/05/28 17:06:30;;;;;;;4.30;2.33;;;;;;;21.23;36.79;96306.31;10493965;28;20199;-67
2023/05/28 17:11:31;;;;;;;6.13;2.72;;;;;;;21.36;36.92;96322.06;10493131;28;20207;-67
2023/05/28 17:16:31;;;;;;;7.43;2.40;;;;;;;21.12;36.40;96302.63;10492890;28;20203;-67
2023/05/28 17:21:31;;;;;;;5.22;2.38;;;;;;;21.05;37.20;96338.44;10492494;28;20284;-67
2023/05/28 17:26:32;;;;;;;6.93;2.85;;;;;;;20.94;36.25;96305.44;10493672;28;20187;-67
2023/05/28 17:31:33;;;;;;;4.40;2.45;;;;;;;21.07;36.72;96317.69;10492544;28;20275;-66
2023/05/28 17:36:33;;;;;;;4.80;2.38;;;;;;;20.63;36.78;96312.69;10493027;28;20661;-66
2023/05/28 17:41:34;;;;;;;5.25;2.30;;;;;;;20.31;39.05;96351.03;10494470;28;20227;-66
2023/05/28 17:46:39;;;;;;;3.05;2.35;;;;;;;20.18;38.56;96337.91;10500292;28;20557;-66
2023/05/28 17:51:40;;;;;;;5.20;2.10;;;;;;;20.12;39.30;96366.25;10510099;28;20594;-66
2023/05/28 17:56:40;;;;;;;5.10;2.47;;;;;;;20.00;39.53;96356.59;10542578;28;20190;-66
2023/05/28 18:01:43;;;;;;;4.80;2.65;;;;;;;19.84;39.88;96376.63;10541158;28;20724;-66
2023/05/28 18:06:44;;;;;;;3.70;2.80;;;;;;;19.52;40.29;96377.56;10542607;28;20203;-66
2023/05/28 18:11:45;;;;;;;5.88;3.17;;;;;;;19.40;41.44;96400.59;10541393;28;20776;-66
2023/05/28 18:16:45;;;;;;;5.78;3.10;;;;;;;19.01;43.65;96442.44;10541239;28;20190;-66
2023/05/28 18:21:46;;;;;;;4.93;3.15;;;;;;;18.77;45.60;96478.50;10520898;28;20739;-67
2023/05/28 18:26:46;;;;;;;6.05;3.75;;;;;;;17.74;47.81;96518.03;10521855;28;20203;-66
2023/05/28 18:31:47;;;;;;;5.38;3.58;;;;;;;16.79;51.13;96565.03;10517367;28;20242;-66
2023/05/28 18:36:47;;;;;;;272.80;172.27;;;;;;;15.03;56.58;96634.53;10498932;28;20244;-66
2023/05/28 18:41:47;;;;;;;14.32;9.52;;;;;;;14.34;58.64;96646.22;10498141;28;20301;-66
2023/05/28 18:46:48;;;;;;;39.05;23.70;;;;;;;14.44;59.59;96663.41;10499773;28;20195;-66
2023/05/28 18:56:52;;;;;;;5.03;3.22;;;;;;;13.34;63.34;96685.75;10290167;28;20598;-66
2023/05/28 19:01:52;;;;;;;5.68;3.40;;;;;;;13.51;62.17;96657.50;10294557;28;20222;-65
2023/05/28 19:06:53;;;;;;;9.23;3.13;;;;;;;13.36;62.19;96664.53;10333779;28;20209;-65
2023/05/28 19:11:53;;;;;;;4.00;2.80;;;;;;;13.08;62.68;96656.28;10333516;28;20291;-65
2023/05/28 19:16:53;;;;;;;4.93;3.03;;;;;;;12.87;63.75;96681.38;10332988;28;20202;-65
2023/05/28 19:21:54;;;;;;;7.93;3.33;;;;;;;12.72;64.46;96685.72;10333270;28;20224;-64
2023/05/28 19:26:56;;;;;;;6.93;3.40;;;;;;;12.52;65.36;96703.69;10333327;28;20194;-66
2023/05/28 19:31:57;;;;;;;4.00;3.17;;;;;;;12.38;66.25;96702.59;10333442;28;20213;-67
2023/05/28 19:36:58;;;;;;;5.55;3.13;;;;;;;12.28;65.68;96702.75;10332811;28;20226;-66
2023/05/28 19:41:58;;;;;;;11.23;3.83;;;;;;;12.11;66.44;96709.84;10332626;28;20194;-67
2023/05/28 19:46:58;;;;;;;11.32;3.30;;;;;;;12.02;66.36;96719.56;10332367;28;20212;-66
2023/05/28 19:52:00;;;;;;;7.40;3.63;;;;;;;11.76;67.21;96731.00;10331745;28;20226;-67
2023/05/28 19:57:01;;;;;;;5.32;3.00;;;;;;;11.71;68.02;96727.22;10332117;28;20225;-67
2023/05/28 20:02:01;;;;;;;6.55;2.97;;;;;;;11.54;68.36;96732.44;10332007;28;20695;-66
2023/05/28 20:07:01;;;;;;;5.63;2.92;;;;;;;11.39;68.52;96740.16;10330585;28;20236;-66
2023/05/28 20:12:02;;;;;;;4.55;2.63;;;;;;;11.27;69.72;96741.44;10331431;28;20228;-67
2023/05/28 20:17:02;;;;;;;5.15;2.88;;;;;;;11.09;70.06;96754.66;10331149;28;20225;-67
2023/05/28 20:22:04;;;;;;;6.73;2.90;;;;;;;10.85;71.30;96768.47;10331201;28;20210;-65
2023/05/28 20:27:05;;;;;;;4.73;3.20;;;;;;;10.81;70.91;96764.50;10330945;28;20213;-66
2023/05/28 20:32:06;;;;;;;5.70;3.50;;;;;;;10.71;71.25;96777.75;10330698;28;20243;-67
2023/05/28 20:37:08;;;;;;;5.70;3.13;;;;;;;10.56;71.83;96777.47;10330443;28;20198;-66
2023/05/28 20:42:09;;;;;;;4.93;3.40;;;;;;;10.37;73.14;96785.53;10329836;28;20206;-66
2023/05/28 20:47:11;;;;;;;6.20;3.47;;;;;;;10.12;74.92;96798.41;10330605;28;20576;-65
2023/05/28 20:52:11;;;;;;;4.67;3.10;;;;;;;10.07;75.46;96798.06;10329935;28;20238;-65
2023/05/28 20:57:12;;;;;;;6.33;3.90;;;;;;;9.96;76.12;96794.69;10330176;28;20194;-66
2023/05/28 21:02:13;;;;;;;7.60;3.43;;;;;;;9.84;76.54;96797.69;10329767;28;20213;-66
2023/05/28 21:07:13;;;;;;;5.97;4.00;;;;;;;9.66;77.80;96789.84;10329432;28;20197;-66
2023/05/28 21:12:13;;;;;;;6.03;3.20;;;;;;;9.64;78.08;96793.41;10329458;28;20252;-65
2023/05/28 21:17:14;;;;;;;4.33;3.07;;;;;;;9.58;79.05;96796.63;10335226;28;20259;-66
2023/05/28 21:22:14;;;;;;;8.20;3.13;;;;;;;9.51;79.82;96798.22;10342695;28;20590;-66
2023/05/28 21:27:15;;;;;;;5.60;3.27;;;;;;;9.49;80.01;96810.59;10343275;28;20569;-64
2023/05/28 21:32:15;;;;;;;5.63;3.30;;;;;;;9.36;80.57;96808.34;10342354;28;20229;-66
2023/05/28 21:37:16;;;;;;;7.77;3.13;;;;;;;9.24;81.69;96805.09;10343199;28;20614;-65
2023/05/28 21:42:16;;;;;;;10.80;3.20;;;;;;;9.08;83.25;96812.72;10342024;28;20576;-64
2023/05/28 21:47:16;;;;;;;5.87;3.33;;;;;;;8.97;84.07;96803.28;10342641;28;20276;-66
2023/05/28 21:52:17;;;;;;;5.40;3.13;;;;;;;8.85;85.59;96812.28;10341914;28;20225;-66
2023/05/28 21:57:17;;;;;;;5.83;3.50;;;;;;;8.82;85.80;96815.16;10342248;28;20230;-65
2023/05/28 22:02:18;;;;;;;5.20;3.60;;;;;;;8.83;86.55;96801.16;10341876;28;20214;-65
2023/05/28 22:07:18;;;;;;;6.03;3.10;;;;;;;8.78;86.92;96814.66;10342028;28;20193;-64
2023/05/28 22:12:18;;;;;;;7.67;3.40;;;;;;;8.68;87.63;96808.63;10341930;28;20268;-65
2023/05/28 22:17:19;;;;;;;5.13;3.10;;;;;;;8.65;88.89;96819.34;10342153;28;20193;-65
2023/05/28 22:22:19;;;;;;;4.83;3.23;;;;;;;8.63;88.89;96821.28;10341489;28;20638;-65
2023/05/28 22:27:19;;;;;;;4.97;3.10;;;;;;;8.45;89.63;96814.16;10340260;28;20627;-65
2023/05/28 22:32:20;;;;;;;5.83;3.27;;;;;;;8.34;90.79;96807.28;10334862;28;20786;-64
2023/05/28 22:37:20;;;;;;;4.40;3.00;;;;;;;8.27;91.28;96806.22;10335336;28;20686;-65
2023/05/28 22:42:22;;;;;;;4.50;3.43;;;;;;;8.12;92.71;96805.81;10334580;28;20214;-64
2023/05/28 22:47:26;;;;;;;7.17;3.37;;;;;;;8.14;93.08;96801.28;10335050;28;20252;-64
2023/05/28 22:52:26;;;;;;;3.77;3.10;;;;;;;8.11;93.28;96812.00;10334193;28;20799;-65
2023/05/28 22:57:27;;;;;;;4.67;2.43;;;;;;;8.07;93.42;96815.84;10334774;28;20197;-64
2023/05/28 23:02:27;;;;;;;5.57;2.53;;;;;;;8.04;93.27;96805.69;10334216;28;20214;-64
2023/05/28 23:07:27;;;;;;;5.63;3.07;;;;;;;7.98;93.60;96812.28;10334168;28;20218;-64
2023/05/28 23:12:28;;;;;;;6.77;3.20;;;;;;;7.92;93.78;96814.63;10333989;28;20280;-64
2023/05/28 23:17:28;;;;;;;5.83;3.30;;;;;;;7.77;94.28;96825.44;10333945;28;20672;-65
2023/05/28 23:22:28;;;;;;;8.50;3.20;;;;;;;7.81;94.82;96826.00;10333426;28;20212;-65
2023/05/28 23:27:29;;;;;;;8.90;3.10;;;;;;;7.67;95.49;96835.03;10333680;28;20295;-65